Time;durP1;ratioP1;P1;durP2;ratioP2;P2;SDS_P1;SDS_P2;PMS_P1;PMS_P2;Temp;Humidity;BMP_temperature;BMP_pressure;BME280_temperature;BME280_humidity;BME280_pressure;Samples;Min_cycle;Max_cycle;Signal;HPM_P1;HPM_P2
2021/08/26 00:00:00;;;;;;;6.57;4.30;;;;;;;23.94;62.72;102387.09;5087372;28;20039;-74
2021/08/26 00:07:54;;;;;;;5.28;4.30;;;;;;;23.90;62.90;102382.13;5078378;28;19941;-73
2021/08/26 00:10:22;;;;;;;6.78;4.75;;;;;;;23.92;62.85;102389.13;5090673;28;20136;-73
2021/08/26 00:12:49;;;;;;;6.22;4.38;;;;;;;23.90;62.77;102384.78;5089785;28;20032;-73
2021/08/26 00:15:14;;;;;;;6.10;4.22;;;;;;;23.92;63.01;102383.78;5084274;28;20035;-74
2021/08/26 00:17:40;;;;;;;5.63;4.20;;;;;;;23.92;62.53;102381.09;5089101;28;20036;-73
2021/08/26 00:20:07;;;;;;;5.63;4.18;;;;;;;23.92;62.88;102389.13;5086109;28;20055;-73
2021/08/26 00:22:32;;;;;;;4.90;4.00;;;;;;;23.92;62.85;102381.09;5079517;28;20487;-73
2021/08/26 00:24:58;;;;;;;6.63;4.72;;;;;;;23.92;62.72;102381.09;5078204;28;20043;-73
2021/08/26 00:27:24;;;;;;;6.63;4.22;;;;;;;23.92;62.91;102389.13;5109184;28;20035;-74
2021/08/26 00:29:50;;;;;;;5.55;4.78;;;;;;;23.92;62.72;102389.97;5092001;28;20504;-74
2021/08/26 00:32:16;;;;;;;5.35;4.28;;;;;;;23.92;62.83;102386.44;5084104;28;20032;-73
2021/08/26 00:34:41;;;;;;;5.75;4.82;;;;;;;23.92;62.33;102386.44;5098813;28;20032;-73
2021/08/26 00:37:06;;;;;;;6.80;4.82;;;;;;;23.91;62.49;102374.91;5097381;28;20044;-73
2021/08/26 00:39:32;;;;;;;9.30;5.28;;;;;;;23.92;62.80;102389.13;5071272;28;20516;-73
2021/08/26 00:41:58;;;;;;;6.90;4.90;;;;;;;23.92;62.44;102383.78;5103075;28;20047;-73
2021/08/26 00:44:23;;;;;;;6.13;4.65;;;;;;;23.92;62.58;102381.09;5092754;28;20035;-73
2021/08/26 00:46:49;;;;;;;6.55;5.05;;;;;;;23.91;62.37;102380.25;5097822;28;20532;-74
2021/08/26 00:49:15;;;;;;;6.43;5.07;;;;;;;23.90;62.43;102379.44;5086099;28;20024;-74
2021/08/26 00:51:42;;;;;;;7.65;5.18;;;;;;;23.90;62.31;102384.78;5091994;28;20361;-74
2021/08/26 00:54:08;;;;;;;6.03;5.15;;;;;;;23.90;62.29;102384.78;5094028;28;20510;-73
2021/08/26 00:56:35;;;;;;;5.93;4.85;;;;;;;23.90;62.56;102379.44;5091634;28;20034;-73
2021/08/26 00:59:02;;;;;;;6.32;5.07;;;;;;;23.90;62.48;102384.78;5086158;28;20478;-73
2021/08/26 01:01:38;;;;;;;6.43;5.13;;;;;;;23.89;62.21;102377.78;5071740;28;20029;-74
2021/08/26 01:04:17;;;;;;;7.40;5.53;;;;;;;23.87;62.24;102371.78;5094978;28;20149;-73
2021/08/26 01:07:05;;;;;;;6.63;4.65;;;;;;;23.85;62.18;102371.13;5094350;28;20027;-74
2021/08/26 01:09:46;;;;;;;6.25;5.07;;;;;;;23.86;62.16;102367.44;5079292;28;20035;-73
2021/08/26 01:12:17;;;;;;;6.10;4.57;;;;;;;23.88;62.00;102376.13;5096378;28;20020;-74
2021/08/26 01:14:43;;;;;;;6.80;5.50;;;;;;;23.89;61.83;102368.91;5079375;28;20447;-73
2021/08/26 01:17:15;;;;;;;5.93;4.47;;;;;;;23.88;62.06;102375.28;5087020;28;20040;-73
2021/08/26 01:19:40;;;;;;;6.55;4.55;;;;;;;23.89;62.00;102368.91;5079997;28;20455;-74
2021/08/26 01:22:06;;;;;;;6.07;4.38;;;;;;;23.87;61.88;102358.38;5065816;28;20036;-73
2021/08/26 01:24:33;;;;;;;7.00;4.97;;;;;;;23.88;61.82;102365.38;5090754;28;20039;-74
2021/08/26 01:27:01;;;;;;;7.38;4.90;;;;;;;23.88;61.82;102357.34;5103662;28;20039;-73
2021/08/26 01:29:27;;;;;;;6.60;4.70;;;;;;;23.88;61.79;102360.03;5109977;28;20316;-73
2021/08/26 01:31:53;;;;;;;5.30;4.30;;;;;;;23.88;61.69;102365.38;5110692;28;20067;-73
2021/08/26 01:34:20;;;;;;;5.90;4.75;;;;;;;23.88;61.87;102351.16;5090442;28;20479;-73
2021/08/26 01:36:46;;;;;;;5.05;4.38;;;;;;;23.87;61.65;102353.00;5100637;28;20035;-74
2021/08/26 01:39:14;;;;;;;5.90;4.05;;;;;;;23.87;61.49;102350.34;5095847;28;20168;-73
2021/08/26 01:41:51;;;;;;;6.57;4.47;;;;;;;23.85;61.57;102356.91;5091389;28;20398;-73
2021/08/26 01:44:17;;;;;;;5.80;4.30;;;;;;;23.87;61.61;102346.81;5107912;28;20035;-73
2021/08/26 01:46:43;;;;;;;5.97;4.38;;;;;;;23.86;61.65;102345.16;5096768;28;20493;-73
2021/08/26 01:49:09;;;;;;;5.25;4.20;;;;;;;23.85;61.58;102341.66;5071935;28;20033;-73
2021/08/26 01:51:36;;;;;;;5.30;4.50;;;;;;;23.86;61.67;102340.63;5079445;28;20036;-73
2021/08/26 01:54:02;;;;;;;4.95;3.72;;;;;;;23.86;61.50;102342.47;5079548;28;20081;-73
2021/08/26 01:56:28;;;;;;;8.55;4.40;;;;;;;23.86;61.36;102337.13;5096826;28;20036;-73
2021/08/26 01:58:53;;;;;;;5.35;4.53;;;;;;;23.86;61.42;102337.13;5084736;28;20050;-73
2021/08/26 02:01:18;;;;;;;4.85;3.85;;;;;;;23.86;61.37;102343.31;5094759;28;20089;-73
2021/08/26 02:03:44;;;;;;;5.05;3.90;;;;;;;23.86;61.25;102332.59;5089556;28;20033;-74
2021/08/26 02:06:10;;;;;;;4.80;3.95;;;;;;;23.85;61.33;102330.09;5095450;28;20039;-73
2021/08/26 02:08:36;;;;;;;5.45;4.20;;;;;;;23.86;61.38;102331.75;5073796;28;20541;-73
2021/08/26 02:11:01;;;;;;;6.65;4.35;;;;;;;23.85;61.05;102328.25;5095736;28;20094;-74
2021/08/26 02:13:27;;;;;;;7.88;5.00;;;;;;;23.85;61.25;102327.44;5095577;28;20464;-73
2021/08/26 02:15:52;;;;;;;5.38;4.20;;;;;;;23.85;61.28;102333.63;5087472;28;20133;-73
2021/08/26 02:18:18;;;;;;;5.43;4.55;;;;;;;23.85;61.06;102330.94;5099287;28;21348;-73
2021/08/26 02:20:43;;;;;;;7.22;5.10;;;;;;;23.85;60.90;102333.63;5074368;28;20075;-73
2021/08/26 02:23:09;;;;;;;8.20;5.15;;;;;;;23.84;60.76;102333.81;5102304;28;20035;-73
2021/08/26 02:25:34;;;;;;;5.53;4.57;;;;;;;23.85;60.77;102336.28;5095724;28;20118;-73
2021/08/26 02:27:59;;;;;;;6.05;5.00;;;;;;;23.84;60.80;102336.47;5113269;28;20044;-73
2021/08/26 02:30:25;;;;;;;7.85;5.18;;;;;;;23.84;61.00;102342.66;5099804;28;20023;-73
2021/08/26 02:32:50;;;;;;;6.32;4.65;;;;;;;23.84;60.78;102342.66;5102078;28;20031;-73
2021/08/26 02:35:16;;;;;;;6.50;5.07;;;;;;;23.85;60.60;102341.66;5087986;28;20094;-74
2021/08/26 02:37:41;;;;;;;5.88;4.55;;;;;;;23.84;60.60;102347.19;5099029;28;20052;-73
2021/08/26 02:40:08;;;;;;;6.40;4.68;;;;;;;23.84;60.57;102342.66;5105986;28;20027;-73
2021/08/26 02:42:33;;;;;;;7.28;5.38;;;;;;;23.85;60.42;102343.50;5106302;28;20043;-74
2021/08/26 02:44:59;;;;;;;7.50;4.78;;;;;;;23.84;60.46;102341.84;5106608;28;20177;-73
2021/08/26 02:47:24;;;;;;;6.70;5.05;;;;;;;23.84;60.63;102339.16;5078590;28;20431;-73
2021/08/26 02:49:50;;;;;;;7.20;5.50;;;;;;;23.84;60.61;102348.03;5098373;28;20146;-73
2021/08/26 02:52:15;;;;;;;8.98;6.10;;;;;;;23.83;60.38;102346.38;5103583;28;20027;-73
2021/08/26 02:54:41;;;;;;;6.40;4.90;;;;;;;23.84;60.17;102339.16;5106208;28;20464;-73
2021/08/26 02:57:06;;;;;;;6.75;5.10;;;;;;;23.84;60.15;102340.00;5108287;28;20081;-73
2021/08/26 02:59:32;;;;;;;8.05;5.35;;;;;;;23.83;60.34;102340.19;5107662;28;20364;-73
2021/08/26 03:01:58;;;;;;;7.45;4.85;;;;;;;23.83;60.33;102334.81;5102272;28;20202;-73
2021/08/26 03:04:23;;;;;;;7.10;5.25;;;;;;;23.83;60.20;102332.97;5091983;28;20035;-73
2021/08/26 03:06:49;;;;;;;7.20;5.22;;;;;;;23.83;60.11;102335.66;5107264;28;20076;-73
2021/08/26 03:09:14;;;;;;;7.13;4.85;;;;;;;23.83;59.93;102332.97;5101490;28;20482;-73
2021/08/26 03:11:40;;;;;;;6.72;4.80;;;;;;;23.83;59.86;102334.81;5089676;28;20725;-73
2021/08/26 03:14:05;;;;;;;8.65;5.30;;;;;;;23.83;59.82;102329.47;5106029;28;20031;-73
2021/08/26 03:16:31;;;;;;;6.80;4.85;;;;;;;23.83;60.08;102324.09;5087612;28;20060;-73
2021/08/26 03:18:56;;;;;;;6.18;4.47;;;;;;;23.82;59.94;102331.28;5098278;28;20032;-73
2021/08/26 03:21:22;;;;;;;6.68;5.07;;;;;;;23.81;59.91;102334.97;5106381;28;20040;-73
2021/08/26 03:23:47;;;;;;;9.13;5.30;;;;;;;23.81;60.11;102337.66;5089920;28;20036;-73
2021/08/26 03:26:13;;;;;;;6.03;4.53;;;;;;;23.81;59.81;102332.31;5101657;28;20032;-73
2021/08/26 03:28:38;;;;;;;7.82;5.40;;;;;;;23.81;59.84;102334.97;5088517;28;20043;-73
2021/08/26 03:31:04;;;;;;;8.35;6.20;;;;;;;23.80;59.73;102327.97;5097048;28;20119;-73
2021/08/26 03:33:29;;;;;;;7.82;5.63;;;;;;;23.80;59.66;102327.97;5111478;28;20063;-73
2021/08/26 03:35:54;;;;;;;9.13;5.47;;;;;;;23.81;59.85;102328.78;5099807;28;20034;-73
2021/08/26 03:38:20;;;;;;;6.93;4.88;;;;;;;23.81;59.83;102329.63;5104335;28;20071;-73
2021/08/26 03:40:45;;;;;;;8.30;5.75;;;;;;;23.81;59.63;102326.13;5090819;28;20138;-73
2021/08/26 03:43:11;;;;;;;8.82;5.00;;;;;;;23.80;59.70;102319.94;5073148;28;20659;-73
2021/08/26 03:45:37;;;;;;;9.07;5.30;;;;;;;23.81;59.65;102320.75;5090311;28;20035;-73
2021/08/26 03:48:02;;;;;;;8.15;5.25;;;;;;;23.80;59.74;102316.41;5091346;28;20044;-73
2021/08/26 03:50:28;;;;;;;7.88;5.20;;;;;;;23.79;59.34;102326.31;5075471;28;20390;-73
2021/08/26 03:52:53;;;;;;;7.57;5.15;;;;;;;23.79;59.48;102322.78;5108999;28;20126;-73
2021/08/26 03:55:19;;;;;;;8.35;5.43;;;;;;;23.79;59.53;102322.78;5110054;28;20035;-74
2021/08/26 03:57:44;;;;;;;7.68;5.35;;;;;;;23.79;59.49;102330.84;5102232;28;20028;-74
2021/08/26 04:00:11;;;;;;;8.73;5.63;;;;;;;23.78;59.57;102321.97;5104371;28;20036;-73
2021/08/26 04:02:37;;;;;;;7.45;5.05;;;;;;;23.78;59.31;102324.66;5078327;28;20186;-74
2021/08/26 04:05:03;;;;;;;6.95;4.53;;;;;;;23.79;59.03;102323.63;5104676;28;20229;-73
2021/08/26 04:07:31;;;;;;;8.23;5.57;;;;;;;23.79;59.26;102314.75;5105856;28;20055;-73
2021/08/26 04:09:58;;;;;;;5.82;4.75;;;;;;;23.79;59.09;102306.72;5103159;28;20040;-73
2021/08/26 04:12:24;;;;;;;7.78;5.45;;;;;;;23.78;59.05;102311.25;5092984;28;20034;-73
2021/08/26 04:14:50;;;;;;;5.97;4.97;;;;;;;23.78;59.17;102316.59;5101384;28;20027;-73
2021/08/26 04:17:15;;;;;;;7.10;4.85;;;;;;;23.78;58.94;102316.59;5096752;28;20075;-73
2021/08/26 04:19:41;;;;;;;7.35;5.28;;;;;;;23.78;59.23;102310.41;5110833;28;20035;-74
2021/08/26 04:22:06;;;;;;;6.40;4.55;;;;;;;23.79;59.22;102314.75;5097606;28;20506;-74
2021/08/26 04:24:32;;;;;;;8.18;4.65;;;;;;;23.78;59.24;102319.28;5110043;28;20031;-74
2021/08/26 04:26:57;;;;;;;8.25;5.53;;;;;;;23.79;59.07;102317.44;5111563;28;20028;-73
2021/08/26 04:29:23;;;;;;;7.53;5.55;;;;;;;23.78;59.13;102319.28;5107819;28;20402;-74
2021/08/26 04:31:48;;;;;;;7.85;5.18;;;;;;;23.79;59.22;102312.91;5091366;28;20043;-74
2021/08/26 04:34:14;;;;;;;6.45;4.90;;;;;;;23.79;59.10;102317.44;5072453;28;20109;-73
2021/08/26 04:36:39;;;;;;;7.30;5.05;;;;;;;23.78;59.27;102319.28;5103906;28;20039;-74
2021/08/26 04:39:04;;;;;;;6.65;5.15;;;;;;;23.79;59.23;102328.16;5096220;28;20039;-74
2021/08/26 04:41:30;;;;;;;6.93;4.93;;;;;;;23.79;59.07;102320.13;5090612;28;20680;-72
2021/08/26 04:43:55;;;;;;;9.38;5.65;;;;;;;23.78;59.13;102321.13;5086808;28;20024;-73
2021/08/26 04:46:21;;;;;;;6.15;4.82;;;;;;;23.78;59.20;102321.13;5094550;28;20044;-74
2021/08/26 04:48:46;;;;;;;8.68;5.65;;;;;;;23.78;59.18;102318.47;5071845;28;20035;-73
2021/08/26 04:51:12;;;;;;;7.13;5.25;;;;;;;23.78;58.97;102323.81;5099897;28;20031;-73
2021/08/26 04:53:37;;;;;;;7.85;4.95;;;;;;;23.78;59.03;102321.13;5099622;28;20052;-73
2021/08/26 04:56:03;;;;;;;7.72;5.47;;;;;;;23.78;59.17;102323.81;5090087;28;20043;-73
2021/08/26 04:58:28;;;;;;;7.95;5.10;;;;;;;23.78;58.87;102329.19;5090535;28;20028;-73
2021/08/26 05:00:54;;;;;;;7.43;5.10;;;;;;;23.77;59.14;102323.00;5104065;28;20480;-73
2021/08/26 05:03:19;;;;;;;9.25;4.90;;;;;;;23.78;59.09;102321.97;5103727;28;20035;-73
2021/08/26 05:05:45;;;;;;;6.55;4.65;;;;;;;23.77;59.02;102320.31;5092884;28;20028;-74
2021/08/26 05:08:10;;;;;;;9.35;4.93;;;;;;;23.77;59.04;102328.34;5105563;28;20134;-72
2021/08/26 05:10:39;;;;;;;6.85;4.30;;;;;;;23.77;59.31;102330.19;5084665;28;20074;-73
2021/08/26 05:13:08;;;;;;;8.07;5.18;;;;;;;23.76;58.95;102334.72;5090473;28;20067;-73
2021/08/26 05:15:38;;;;;;;6.78;4.90;;;;;;;23.75;59.05;102333.06;5099797;28;20040;-73
2021/08/26 05:18:04;;;;;;;7.13;4.88;;;;;;;23.76;58.78;102337.41;5087582;28;20043;-73
2021/08/26 05:20:29;;;;;;;6.13;4.43;;;;;;;23.77;58.71;102333.72;5101112;28;20029;-74
2021/08/26 05:22:57;;;;;;;7.03;5.35;;;;;;;23.76;58.91;102325.84;5098731;28;20032;-73
2021/08/26 05:25:22;;;;;;;6.07;4.40;;;;;;;23.76;58.82;102344.63;5098619;28;20059;-73
2021/08/26 05:27:48;;;;;;;6.68;4.80;;;;;;;23.76;58.65;102340.09;5102490;28;20035;-73
2021/08/26 05:30:13;;;;;;;6.93;5.03;;;;;;;23.76;58.84;102341.94;5110192;28;20394;-73
2021/08/26 05:32:39;;;;;;;6.78;4.85;;;;;;;23.76;58.61;102339.25;5076734;28;20111;-73
2021/08/26 05:35:04;;;;;;;6.80;4.75;;;;;;;23.75;59.00;102343.78;5109606;28;20390;-73
2021/08/26 05:37:30;;;;;;;6.30;4.53;;;;;;;23.75;58.76;102351.81;5109907;28;20052;-73
2021/08/26 05:39:56;;;;;;;5.93;4.65;;;;;;;23.76;58.97;102349.97;5076219;28;20036;-73
2021/08/26 05:42:23;;;;;;;6.63;4.50;;;;;;;23.74;58.89;102355.53;5100462;28;20558;-73
2021/08/26 05:44:48;;;;;;;6.05;4.78;;;;;;;23.73;58.87;102353.88;5095202;28;20051;-73
2021/08/26 05:47:14;;;;;;;7.60;4.65;;;;;;;23.75;58.54;102353.69;5079715;28;20032;-73
2021/08/26 05:49:39;;;;;;;7.20;5.15;;;;;;;23.74;58.79;102344.81;5106456;28;20039;-74
2021/08/26 05:52:05;;;;;;;8.18;4.47;;;;;;;23.74;58.70;102352.00;5077399;28;20432;-73
2021/08/26 05:54:31;;;;;;;7.25;5.05;;;;;;;23.75;58.90;102359.03;5108267;28;20489;-73
2021/08/26 05:56:59;;;;;;;7.32;4.75;;;;;;;23.74;58.59;102355.53;5102263;28;20028;-73
2021/08/26 05:59:25;;;;;;;6.20;4.38;;;;;;;23.74;58.56;102352.84;5093484;28;20059;-72
2021/08/26 06:01:50;;;;;;;8.68;5.15;;;;;;;23.74;58.39;102355.53;5092319;28;20034;-73
2021/08/26 06:04:15;;;;;;;8.60;5.35;;;;;;;23.73;58.37;102361.91;5101398;28;20034;-73
2021/08/26 06:06:41;;;;;;;6.88;4.70;;;;;;;23.73;58.62;102359.22;5101840;28;20036;-73
2021/08/26 06:09:06;;;;;;;8.30;5.43;;;;;;;23.73;58.72;102367.25;5092510;28;20392;-72
2021/08/26 06:11:33;;;;;;;7.20;5.03;;;;;;;23.72;58.23;102365.59;5074580;28;20031;-73
2021/08/26 06:13:58;;;;;;;7.78;5.50;;;;;;;23.73;58.24;102366.44;5102390;28;20046;-73
2021/08/26 06:16:24;;;;;;;7.57;5.70;;;;;;;23.73;58.41;102367.25;5101545;28;20142;-73
2021/08/26 06:18:49;;;;;;;9.20;5.68;;;;;;;23.72;58.55;102367.44;5101824;28;20036;-73
2021/08/26 06:21:18;;;;;;;8.43;5.35;;;;;;;23.72;58.41;102370.97;5092741;28;20055;-76
2021/08/26 06:23:43;;;;;;;7.13;5.07;;;;;;;23.73;58.21;102369.13;5092323;28;20047;-76
2021/08/26 06:26:09;;;;;;;8.05;5.88;;;;;;;23.72;58.38;102370.13;5095124;28;20032;-77
2021/08/26 06:28:35;;;;;;;9.38;6.63;;;;;;;23.70;58.37;102373.00;5109010;28;20040;-73
2021/08/26 06:31:00;;;;;;;8.90;5.15;;;;;;;23.70;58.25;102373.00;5098310;28;20054;-70
2021/08/26 06:33:26;;;;;;;7.38;5.20;;;;;;;23.71;58.40;102381.88;5104505;28;20462;-71
2021/08/26 06:35:52;;;;;;;9.90;5.65;;;;;;;23.72;58.38;102379.00;5092431;28;20552;-71
2021/08/26 06:38:18;;;;;;;10.30;5.93;;;;;;;23.72;58.28;102373.66;5078681;28;20708;-72
2021/08/26 06:40:44;;;;;;;8.43;5.20;;;;;;;23.72;58.33;102370.97;5057332;28;20036;-71
2021/08/26 06:43:09;;;;;;;7.15;5.15;;;;;;;23.72;58.16;102367.44;5092306;28;20036;-70
2021/08/26 06:45:36;;;;;;;11.80;5.60;;;;;;;23.73;58.26;102371.78;5103989;28;20046;-71
2021/08/26 06:48:02;;;;;;;10.50;5.38;;;;;;;23.72;58.20;102367.44;5097761;28;20088;-78
2021/08/26 06:50:28;;;;;;;14.13;6.68;;;;;;;23.72;58.22;102373.66;5091772;28;20032;-75
2021/08/26 06:52:53;;;;;;;9.80;6.18;;;;;;;23.72;58.18;102376.31;5096670;28;20054;-77
2021/08/26 06:55:19;;;;;;;12.90;6.75;;;;;;;23.73;58.19;102369.94;5091437;28;20082;-76
2021/08/26 06:57:44;;;;;;;11.45;6.95;;;;;;;23.72;57.92;102365.59;5087488;28;20358;-75
2021/08/26 07:00:10;;;;;;;19.35;7.47;;;;;;;23.72;57.84;102362.09;5092667;28;20027;-73
2021/08/26 07:02:36;;;;;;;19.10;8.13;;;;;;;23.72;57.85;102368.28;5093268;28;20048;-73
2021/08/26 07:05:02;;;;;;;17.55;8.32;;;;;;;23.72;57.67;102362.09;5042887;28;20074;-70
2021/08/26 07:07:28;;;;;;;12.60;7.15;;;;;;;23.71;57.70;102361.25;5102802;28;20036;-68
2021/08/26 07:09:53;;;;;;;13.10;7.03;;;;;;;23.72;57.89;102356.72;5056573;28;20050;-70
2021/08/26 07:12:19;;;;;;;9.93;6.13;;;;;;;23.73;58.02;102361.06;5069733;28;20108;-71
2021/08/26 07:14:44;;;;;;;19.38;7.40;;;;;;;23.74;58.48;102365.41;5090334;28;20027;-72
2021/08/26 07:17:10;;;;;;;13.13;7.10;;;;;;;23.75;58.20;102367.06;5086421;28;20031;-71
2021/08/26 07:19:36;;;;;;;19.05;8.18;;;;;;;23.75;58.02;102353.69;5107111;28;20138;-70
2021/08/26 07:22:02;;;;;;;14.18;8.05;;;;;;;23.74;58.19;102358.22;5109806;28;20147;-71
2021/08/26 07:24:27;;;;;;;13.77;7.72;;;;;;;23.74;57.96;102352.84;5109690;28;20443;-70
2021/08/26 07:26:53;;;;;;;11.88;7.63;;;;;;;23.74;57.94;102355.53;5111481;28;20052;-70
2021/08/26 07:29:18;;;;;;;11.98;7.60;;;;;;;23.74;57.64;102357.38;5088858;28;20032;-71
2021/08/26 07:31:45;;;;;;;12.70;7.53;;;;;;;23.74;57.54;102358.22;5099749;28;20399;-70
2021/08/26 07:34:12;;;;;;;11.40;6.80;;;;;;;23.75;57.68;102359.03;5092777;28;20051;-70
2021/08/26 07:36:38;;;;;;;12.98;7.80;;;;;;;23.76;57.22;102360.69;5105201;28;20030;-72
2021/08/26 07:39:04;;;;;;;12.45;6.65;;;;;;;23.75;57.43;102357.19;5096632;28;20127;-67
2021/08/26 07:41:30;;;;;;;19.60;7.20;;;;;;;23.74;57.68;102358.22;5062113;28;20051;-70
2021/08/26 07:43:58;;;;;;;11.18;6.57;;;;;;;23.74;57.58;102358.22;5055720;28;20033;-70
2021/08/26 07:46:24;;;;;;;12.68;6.70;;;;;;;23.77;58.00;102357.81;5087925;28;20028;-65
2021/08/26 07:48:50;;;;;;;13.02;7.57;;;;;;;23.76;57.70;102355.34;5096718;28;20031;-70
2021/08/26 07:51:16;;;;;;;14.07;7.70;;;;;;;23.75;57.75;102354.50;5089086;28;20038;-70
2021/08/26 07:53:41;;;;;;;16.75;7.88;;;;;;;23.77;57.82;102357.00;5083099;28;20063;-66
2021/08/26 07:56:07;;;;;;;15.82;7.97;;;;;;;23.76;58.30;102356.16;5095899;28;20028;-70
2021/08/26 07:58:32;;;;;;;19.17;7.90;;;;;;;23.77;58.22;102347.09;5096766;28;20048;-70
2021/08/26 08:00:59;;;;;;;14.10;7.35;;;;;;;23.78;58.13;102356.81;5093130;28;20336;-70
2021/08/26 08:03:25;;;;;;;13.65;7.10;;;;;;;23.77;58.22;102357.81;5073800;28;20044;-70
2021/08/26 08:05:51;;;;;;;15.40;7.18;;;;;;;23.77;57.85;102360.50;5106823;28;20038;-70
2021/08/26 08:08:16;;;;;;;13.55;6.90;;;;;;;23.78;58.00;102359.47;5108151;28;20051;-70
2021/08/26 08:10:42;;;;;;;15.80;7.68;;;;;;;23.77;57.76;102352.47;5093580;28;20035;-70
2021/08/26 08:13:09;;;;;;;15.30;7.22;;;;;;;23.77;58.17;102365.88;5095510;28;20032;-70
2021/08/26 08:15:34;;;;;;;11.57;6.63;;;;;;;23.78;57.81;102364.00;5102008;28;20483;-69
2021/08/26 08:18:00;;;;;;;10.60;6.70;;;;;;;23.78;57.54;102367.53;5107512;28;20081;-70
2021/08/26 08:20:26;;;;;;;14.05;7.65;;;;;;;23.77;57.81;102365.88;5074176;28;20105;-70
2021/08/26 08:22:51;;;;;;;14.32;7.50;;;;;;;23.78;57.59;102367.53;5106436;28;20089;-70
2021/08/26 08:25:17;;;;;;;11.43;6.13;;;;;;;23.78;57.49;102367.53;5101973;28;20037;-70
2021/08/26 08:27:43;;;;;;;16.98;7.22;;;;;;;23.79;57.90;102371.84;5042688;28;20140;-70
2021/08/26 08:30:09;;;;;;;11.27;6.63;;;;;;;23.80;58.05;102367.34;5095025;28;20038;-70
2021/08/26 08:32:34;;;;;;;11.23;6.90;;;;;;;23.80;57.94;102370.00;5097978;28;20081;-70
2021/08/26 08:35:00;;;;;;;10.05;6.18;;;;;;;23.78;58.06;102364.84;5109766;28;20035;-70
2021/08/26 08:37:26;;;;;;;10.48;6.45;;;;;;;23.80;57.96;102359.28;5110692;28;20040;-70
2021/08/26 08:39:51;;;;;;;16.00;6.70;;;;;;;23.79;58.07;102363.81;5095607;28;20252;-70
2021/08/26 08:42:31;;;;;;;13.13;6.55;;;;;;;23.76;58.14;102361.53;5090540;28;20051;-70
2021/08/26 08:44:56;;;;;;;11.35;7.43;;;;;;;23.78;58.17;102362.16;5099815;28;20068;-70
2021/08/26 08:47:22;;;;;;;12.18;6.90;;;;;;;23.78;57.91;102359.47;5096550;28;20067;-69
2021/08/26 08:49:50;;;;;;;11.02;6.60;;;;;;;23.78;58.12;102356.81;5093161;28;20123;-70
2021/08/26 08:52:17;;;;;;;10.38;6.43;;;;;;;23.78;57.91;102356.81;5099392;28;20030;-70
2021/08/26 08:54:42;;;;;;;10.52;6.88;;;;;;;23.78;57.95;102359.47;5085671;28;20036;-70
2021/08/26 08:57:08;;;;;;;10.05;6.45;;;;;;;23.79;58.11;102355.78;5083441;28;20316;-70
2021/08/26 08:59:34;;;;;;;10.93;6.35;;;;;;;23.79;58.24;102353.09;5097050;28;20475;-70
2021/08/26 09:01:59;;;;;;;9.63;6.25;;;;;;;23.80;58.16;102359.28;5098834;28;20071;-70
2021/08/26 09:04:25;;;;;;;9.80;6.05;;;;;;;23.80;58.39;102362.81;5105409;28;20023;-69
2021/08/26 09:06:51;;;;;;;12.13;6.30;;;;;;;23.81;58.33;102364.47;5093020;28;20020;-70
2021/08/26 09:09:18;;;;;;;9.68;5.65;;;;;;;23.81;58.45;102369.81;5099128;28;20028;-70
2021/08/26 09:11:52;;;;;;;9.02;5.68;;;;;;;23.81;58.43;102375.19;5071849;28;20123;-70
2021/08/26 09:14:18;;;;;;;9.93;5.97;;;;;;;23.82;58.62;102367.97;5093367;28;20031;-70
2021/08/26 09:16:47;;;;;;;7.53;5.50;;;;;;;23.83;58.86;102364.31;5099286;28;20070;-70
2021/08/26 09:19:32;;;;;;;8.23;5.40;;;;;;;23.79;58.43;102368.34;5095566;28;20050;-70
2021/08/26 09:22:03;;;;;;;8.70;6.18;;;;;;;23.81;58.38;102369.00;5108021;28;20101;-70
2021/08/26 09:24:46;;;;;;;7.28;5.63;;;;;;;23.79;58.47;102377.22;5097194;28;20027;-69
2021/08/26 09:27:31;;;;;;;7.57;5.47;;;;;;;23.78;58.42;102372.06;5106999;28;20035;-70
2021/08/26 09:30:02;;;;;;;8.13;5.45;;;;;;;23.82;58.36;102368.81;5088868;28;20035;-70
2021/08/26 09:32:36;;;;;;;8.45;5.05;;;;;;;23.80;58.32;102370.84;5100368;28;20031;-70
2021/08/26 09:35:13;;;;;;;7.35;5.30;;;;;;;23.78;58.32;102370.19;5080357;28;20373;-69
2021/08/26 09:37:53;;;;;;;8.55;5.80;;;;;;;23.81;58.64;102361.78;5108149;28;20070;-70
2021/08/26 09:40:21;;;;;;;6.57;4.78;;;;;;;23.82;58.53;102358.09;5093791;28;20024;-70
2021/08/26 09:42:58;;;;;;;8.02;5.13;;;;;;;23.80;58.48;102353.94;5093251;28;20043;-70
2021/08/26 09:45:27;;;;;;;8.55;5.65;;;;;;;23.82;58.31;102359.94;5102674;28;20088;-70
2021/08/26 09:48:09;;;;;;;7.60;4.80;;;;;;;23.78;58.36;102364.84;5102991;28;20055;-70
2021/08/26 09:50:47;;;;;;;7.57;5.30;;;;;;;23.80;58.14;102364.66;5102130;28;20115;-69
2021/08/26 09:53:15;;;;;;;7.45;5.47;;;;;;;23.80;58.16;102365.47;5102988;28;20189;-70
2021/08/26 09:56:02;;;;;;;7.68;5.60;;;;;;;23.75;58.59;102359.88;5084026;28;20441;-70
2021/08/26 09:58:30;;;;;;;6.88;5.40;;;;;;;23.80;58.50;102360.13;5102824;28;20027;-70
2021/08/26 10:01:17;;;;;;;9.18;5.38;;;;;;;23.75;58.83;102361.72;5092865;28;20020;-70
2021/08/26 10:03:43;;;;;;;7.45;4.95;;;;;;;23.78;58.89;102356.81;5102388;28;20111;-70
2021/08/26 10:06:14;;;;;;;9.32;5.47;;;;;;;23.78;58.96;102359.47;5101963;28;20332;-69
2021/08/26 10:08:48;;;;;;;6.45;4.70;;;;;;;23.77;59.03;102360.50;5093365;28;20032;-70
2021/08/26 10:11:19;;;;;;;8.55;5.22;;;;;;;23.77;59.06;102368.53;5089977;28;20281;-70
2021/08/26 10:13:46;;;;;;;7.18;5.53;;;;;;;23.77;59.16;102368.53;5094536;28;20036;-69
2021/08/26 10:16:12;;;;;;;7.47;5.00;;;;;;;23.78;59.10;102364.84;5097689;28;20032;-70
2021/08/26 10:18:38;;;;;;;8.15;5.32;;;;;;;23.78;59.35;102370.19;5096460;28;20028;-70
2021/08/26 10:21:07;;;;;;;6.80;5.47;;;;;;;23.79;59.38;102369.19;5104593;28;20039;-70
2021/08/26 10:23:38;;;;;;;8.43;5.53;;;;;;;23.80;59.49;102372.69;5098034;28;20028;-69
2021/08/26 10:26:07;;;;;;;6.45;5.30;;;;;;;23.78;59.40;102367.53;5103171;28;20036;-70
2021/08/26 10:28:41;;;;;;;7.55;5.32;;;;;;;23.78;59.69;102369.38;5091406;28;20041;-70
2021/08/26 10:31:30;;;;;;;8.55;5.50;;;;;;;23.74;59.82;102368.91;5098303;28;20032;-69
2021/08/26 10:34:26;;;;;;;7.07;5.25;;;;;;;23.76;59.89;102376.78;5100556;28;20036;-69
2021/08/26 10:36:55;;;;;;;8.93;5.70;;;;;;;23.78;59.91;102377.41;5081117;28;20063;-69
2021/08/26 10:39:36;;;;;;;7.63;5.07;;;;;;;23.76;60.22;102384.81;5097449;28;20035;-69
2021/08/26 10:42:16;;;;;;;7.88;5.55;;;;;;;23.75;60.25;102383.16;5096810;28;20040;-70
2021/08/26 10:45:07;;;;;;;7.88;5.40;;;;;;;23.75;60.31;102381.31;5077622;28;20036;-70
2021/08/26 10:47:48;;;;;;;6.57;4.95;;;;;;;23.75;60.39;102392.03;5084895;28;20092;-70
2021/08/26 10:50:15;;;;;;;7.93;5.43;;;;;;;23.78;60.13;102385.44;5087016;28;20449;-70
2021/08/26 10:52:57;;;;;;;7.97;5.07;;;;;;;23.74;59.99;102390.34;5092982;28;20032;-70
2021/08/26 10:55:31;;;;;;;6.50;5.00;;;;;;;23.77;60.03;102391.81;5098643;28;20050;-70
2021/08/26 10:58:25;;;;;;;7.40;5.57;;;;;;;23.73;60.14;102395.91;5098669;28;20525;-70
2021/08/26 11:00:51;;;;;;;6.43;5.05;;;;;;;23.77;60.10;102395.34;5104408;28;20743;-70
2021/08/26 11:03:46;;;;;;;8.45;5.18;;;;;;;23.71;59.86;102390.72;5106168;28;20274;-70
2021/08/26 11:06:21;;;;;;;7.65;5.32;;;;;;;23.74;60.16;102390.34;5089551;28;20065;-70
2021/08/26 11:08:51;;;;;;;5.88;5.00;;;;;;;23.74;60.01;102393.03;5093189;28;20064;-69
2021/08/26 11:11:39;;;;;;;8.18;5.53;;;;;;;23.69;59.95;102387.41;5090308;28;20462;-70
2021/08/26 11:14:05;;;;;;;5.82;4.75;;;;;;;23.73;59.87;102383.34;5096981;28;20119;-70
2021/08/26 11:16:36;;;;;;;7.25;5.22;;;;;;;23.72;59.67;102380.84;5100188;28;20439;-69
2021/08/26 11:19:05;;;;;;;7.05;5.18;;;;;;;23.72;59.54;102387.03;5091686;28;20348;-70
2021/08/26 11:21:46;;;;;;;7.85;5.25;;;;;;;23.70;59.67;102389.06;5100717;28;20050;-69
2021/08/26 11:24:14;;;;;;;5.95;5.05;;;;;;;23.71;59.59;102390.72;5100225;28;20107;-70
2021/08/26 11:26:51;;;;;;;6.20;4.57;;;;;;;23.70;59.75;102382.88;5099110;28;20046;-69
2021/08/26 11:29:17;;;;;;;5.05;4.40;;;;;;;23.71;59.64;102382.69;5092393;28;20075;-70
2021/08/26 11:31:44;;;;;;;6.43;4.97;;;;;;;23.71;59.32;102390.72;5098148;28;20055;-69